Home > Products > Valid Products > TAF

000
FTUS41 KCLE 230800 AAA
TAFCLE
TAF AMD
KCLE 230856Z 2309/2412 34005KT P6SM SCT018
      TEMPO 2309/2312 BKN018
     FM231500 34007KT P6SM SCT035
     FM231700 32007KT P6SM SCT250
     FM232200 29004KT P6SM BKN250
     FM240800 23004KT P6SM SCT100 BKN250=



000
FTUS41 KCLE 230500
TAFMFD
TAF
KMFD 230537Z 2306/2406 33004KT P6SM SCT015 BKN035
      TEMPO 2306/2310 BKN015
     FM231400 33006KT P6SM SCT035
     FM232200 VRB04KT P6SM BKN250=



000
FTUS41 KCLE 230500
TAFTOL
TAF
KTOL 230537Z 2306/2406 VRB03KT P6SM SKC
      TEMPO 2309/2311 3SM BR
     FM231100 VRB03KT 3SM BR SCT003
      TEMPO 2311/2313 1 1/2SM BR BKN003
     FM231400 29005KT P6SM SCT250
     FM232300 22003KT P6SM BKN250=



000
FTUS41 KCLE 230500
TAFCAK
TAF
KCAK 230537Z 2306/2406 34005KT P6SM BKN035
     FM231300 34007KT P6SM BKN015 BKN035
     FM231700 34007KT P6SM BKN035
     FM232100 32005KT P6SM SCT040
     FM240000 VRB03KT P6SM SKC=



000
FTUS41 KCLE 230500
TAFYNG
TAF
KYNG 230537Z 2306/2406 34005KT P6SM BKN035
     FM231200 34007KT P6SM BKN015 BKN035
     FM231700 34007KT P6SM BKN035
     FM232300 VRB03KT P6SM SKC=



000
FTUS41 KCLE 230500
TAFFDY
TAF
KFDY 230537Z 2306/2406 29004KT P6SM BKN030
     FM230800 VRB03KT P6SM SKC
      TEMPO 2311/2314 4SM BR
     FM231500 28005KT P6SM SCT250
     FM232300 22003KT P6SM BKN250=



000
FTUS41 KCLE 230500
TAFCLE
TAF
KCLE 230537Z 2306/2412 36007KT P6SM SCT018 BKN035
      TEMPO 2306/2310 BKN018
     FM231500 34007KT P6SM SCT035
     FM231700 32007KT P6SM SCT250
     FM232200 29004KT P6SM BKN250
     FM240800 23004KT P6SM SCT100 BKN250=



000
FTUS41 KCLE 230500
TAFERI
TAF
KERI 230537Z 2306/2406 36006KT P6SM SCT025 BKN035
      TEMPO 2306/2310 BKN025
     FM231200 36006KT P6SM SCT035
     FM231600 32008KT P6SM SKC
     FM232300 32004KT P6SM SCT250=



000
FTUS41 KCLE 230300 AAB
TAFERI
TAF AMD
KERI 230341Z 2304/2324 VRB03KT P6SM SCT020 OVC035
      TEMPO 2305/2309 BKN020
     FM231400 36005KT P6SM SCT035=



000
FTUS41 KCLE 230300 AAB
TAFERI
TAF AMD
KERI 230341Z 2304/2324 VRB03KT P6SM SCT020 OVC035
      TEMPO 2305/2309 BKN020
     FM231400 36005KT P6SM SCT035=



000
FTUS41 KCLE 230300 AAB
TAFYNG
TAF AMD
KYNG 230339Z 2304/2324 33005KT P6SM SCT018 OVC035
      TEMPO 2306/2310 OVC018
     FM231600 33006KT P6SM SCT035=



000
FTUS41 KCLE 230300 AAB
TAFYNG
TAF AMD
KYNG 230339Z 2304/2324 33005KT P6SM SCT018 OVC035
      TEMPO 2306/2310 OVC018
     FM231600 33006KT P6SM SCT035=



000
FTUS41 KCLE 230300 AAB
TAFCAK
TAF AMD
KCAK 230338Z 2304/2324 34005KT P6SM SCT015 OVC035
      TEMPO 2308/2311 BKN015
     FM231500 33006KT P6SM SCT035=



000
FTUS41 KCLE 230300 AAB
TAFCAK
TAF AMD
KCAK 230338Z 2304/2324 34005KT P6SM SCT015 OVC035
      TEMPO 2308/2311 BKN015
     FM231500 33006KT P6SM SCT035=



000
FTUS41 KCLE 230300 AAA
TAFCLE
TAF AMD
KCLE 230327Z 2303/2406 36006KT P6SM SCT015 BKN035
      TEMPO 2303/2306 BKN015
     FM231300 34005KT P6SM SCT035
     FM231700 32008KT P6SM SCT250=



000
FTUS41 KCLE 230300 AAA
TAFMFD
TAF AMD
KMFD 230326Z 2303/2324 33005KT P6SM OVC035
     FM230700 32004KT P6SM SCT015 BKN035
      TEMPO 2307/2311 BKN015
     FM231400 32005KT P6SM FEW035 SCT250=



000
FTUS41 KCLE 230300 AAB
TAFFDY
TAF AMD
KFDY 230315Z 2303/2324 29004KT P6SM BKN035
     FM230900 VRB03KT P6SM SKC
      TEMPO 2311/2314 4SM BR
     FM231500 28005KT P6SM SCT250=



000
FTUS41 KCLE 230200 AAA
TAFYNG
TAF AMD
KYNG 230215Z 2302/2324 33005KT P6SM BKN035
     FM231500 33006KT P6SM SCT035=



000
FTUS41 KCLE 230200 AAA
TAFYNG
TAF AMD
KYNG 230215Z 2302/2324 33005KT P6SM BKN035
     FM231500 33006KT P6SM SCT035=



000
FTUS41 KCLE 230100 AAA
TAFTOL
TAF AMD
KTOL 230128Z 2301/2324 29004KT P6SM BKN035
     FM230230 29004KT P6SM SCT035
     FM230500 VRB03KT P6SM SKC
      TEMPO 2311/2314 4SM BR
     FM231500 27005KT P6SM SCT250=



000
FTUS41 KCLE 230100 AAA
TAFTOL
TAF AMD
KTOL 230128Z 2301/2324 29004KT P6SM BKN035
     FM230230 29004KT P6SM SCT035
     FM230500 VRB03KT P6SM SKC
      TEMPO 2311/2314 4SM BR
     FM231500 27005KT P6SM SCT250=



000
FTUS41 KCLE 230000 AAA
TAFFDY
TAF AMD
KFDY 230019Z 2300/2324 29004KT P6SM SCT035
     FM230100 29004KT P6SM BKN035
     FM230400 02004KT P6SM SKC
      TEMPO 2311/2314 4SM BR
     FM231500 28005KT P6SM SCT250=



000
FTUS41 KCLE 230000 AAA
TAFFDY
TAF AMD
KFDY 230019Z 2300/2324 29004KT P6SM SCT035
     FM230100 29004KT P6SM BKN035
     FM230400 02004KT P6SM SKC
      TEMPO 2311/2314 4SM BR
     FM231500 28005KT P6SM SCT250=



000
FTUS41 KCLE 230000 AAA
TAFCAK
TAF AMD
KCAK 230008Z 2300/2324 36005KT P6SM BKN035
      TEMPO 2301/2304 SCT035
     FM231400 33006KT P6SM SCT035=



000
FTUS41 KCLE 230000 AAA
TAFCAK
TAF AMD
KCAK 230008Z 2300/2324 36005KT P6SM BKN035
      TEMPO 2301/2304 SCT035
     FM231400 33006KT P6SM SCT035=



000
FTUS41 KCLE 230000 AAA
TAFERI
TAF AMD
KERI 230005Z 2300/2324 01005KT P6SM BKN035
     FM231400 36005KT P6SM SCT035=



000
FTUS41 KCLE 230000 AAA
TAFERI
TAF AMD
KERI 230005Z 2300/2324 01005KT P6SM BKN035
     FM231400 36005KT P6SM SCT035=



000
FTUS41 KCLE 222300
TAFYNG
TAF
KYNG 222338Z 2300/2324 35006KT P6SM SCT018
     FM230300 35005KT P6SM BKN018
     FM231500 33006KT P6SM SCT025=



000
FTUS41 KCLE 222300
TAFCLE
TAF
KCLE 222338Z 2300/2406 36005KT P6SM BKN035
     FM231100 34005KT P6SM SCT035
     FM231700 32008KT P6SM SCT250=



000
FTUS41 KCLE 222300
TAFERI
TAF
KERI 222338Z 2300/2324 01005KT P6SM BKN020
     FM231400 36005KT P6SM SCT025=



000
FTUS41 KCLE 222300
TAFCAK
TAF
KCAK 222338Z 2300/2324 36005KT P6SM BKN030
      TEMPO 2301/2304 SCT030
     FM231400 33006KT P6SM SCT035=



000
FTUS41 KCLE 222300
TAFFDY
TAF
KFDY 222338Z 2300/2324 29004KT P6SM SCT030
     FM230400 02004KT P6SM SKC
      TEMPO 2311/2314 4SM BR
     FM231500 28005KT P6SM SCT250=



000
FTUS41 KCLE 222300
TAFTOL
TAF
KTOL 222338Z 2300/2324 29004KT P6SM BKN035
     FM230100 29004KT P6SM SCT035
     FM230400 VRB03KT P6SM SKC
      TEMPO 2311/2314 4SM BR
     FM231500 27005KT P6SM SCT250=



000
FTUS41 KCLE 222300
TAFMFD
TAF
KMFD 222338Z 2300/2324 34005KT P6SM OVC035
     FM230900 32004KT 4SM BR SCT035
     FM231400 32005KT P6SM SCT250=



000
FTUS41 KCLE 222200 AAA
TAFERI
TAF AMD
KERI 222256Z 2223/2318 01006KT P6SM BKN035
     FM231400 36005KT P6SM SCT035=



000
FTUS41 KCLE 222200 AAA
TAFERI
TAF AMD
KERI 222256Z 2223/2318 01006KT P6SM BKN035
     FM231400 36005KT P6SM SCT035=



000
FTUS41 KCLE 222200 AAA
TAFYNG
TAF AMD
KYNG 222247Z 2223/2318 35006KT P6SM OVC028
     FM231400 33006KT P6SM SCT035=



000
FTUS41 KCLE 222200 AAA
TAFYNG
TAF AMD
KYNG 222247Z 2223/2318 35006KT P6SM OVC028
     FM231400 33006KT P6SM SCT035=



000
FTUS41 KCLE 222200 AAA
TAFCAK
TAF AMD
KCAK 222244Z 2223/2318 36005KT P6SM OVC028
     FM231400 33006KT P6SM SCT035=



000
FTUS41 KCLE 222200 AAA
TAFCAK
TAF AMD
KCAK 222244Z 2223/2318 36005KT P6SM OVC028
     FM231400 33006KT P6SM SCT035=



000
FTUS41 KCLE 222200 AAA
TAFMFD
TAF AMD
KMFD 222224Z 2222/2318 36005KT P6SM OVC030
     FM230900 32004KT 4SM BR SCT030
     FM231400 32005KT P6SM SCT250=



000
FTUS41 KCLE 222200 AAB
TAFCLE
TAF AMD
KCLE 222203Z 2222/2324 36006KT P6SM BKN035
     FM230900 34005KT P6SM SCT035
     FM231400 32008KT P6SM SCT250=



000
FTUS41 KCLE 222100 AAA
TAFCLE
TAF AMD
KCLE 222114Z 2221/2324 36008KT P6SM SCT030
     FM222330 01008KT P6SM BKN035
     FM230800 35005KT P6SM SCT035
     FM231400 32008KT P6SM SCT250=



000
FTUS41 KCLE 221700
TAFCAK
TAF
KCAK 221731Z 2218/2318 01011KT P6SM OVC015
     FM222000 36011KT P6SM OVC025
     FM222300 36010KT P6SM BKN030
     FM230000 36010KT P6SM BKN035
     FM230300 36004KT P6SM SCT035
     FM230900 33005KT 5SM BR SCT040=



000
FTUS41 KCLE 221700
TAFTOL
TAF
KTOL 221731Z 2218/2318 36010KT P6SM OVC024
     FM222000 36010KT P6SM BKN030
     FM222200 02010KT P6SM SCT035
     FM230000 02006KT P6SM SKC
     FM230200 VRB03KT P6SM SKC=



000
FTUS41 KCLE 221700
TAFERI
TAF
KERI 221731Z 2218/2318 02012KT P6SM OVC018
     FM222000 02012KT P6SM OVC025
     FM222200 02010KT P6SM BKN030
     FM230000 02010KT P6SM BKN035
     FM230200 36007KT P6SM BKN040
     FM230600 34005KT P6SM SCT040=



000
FTUS41 KCLE 221700
TAFCLE
TAF
KCLE 221731Z 2218/2324 01012KT P6SM OVC018
     FM222000 01012KT P6SM OVC025
     FM222200 01010KT P6SM BKN035
     FM230000 01008KT P6SM SCT040
     FM230600 01005KT P6SM SCT035
     FM231400 32008KT P6SM SCT250=



000
FTUS41 KCLE 221700
TAFMFD
TAF
KMFD 221731Z 2218/2318 34010KT 6SM BR OVC015
     FM222000 35010KT P6SM OVC020
     FM222200 35010KT P6SM BKN025
     FM230000 36008KT P6SM BKN035
     FM230200 34004KT P6SM SKC
     FM230900 VRB04KT 3SM BR SKC=



000
FTUS41 KCLE 221700
TAFYNG
TAF
KYNG 221731Z 2218/2318 36010KT P6SM OVC015
     FM222000 36010KT P6SM OVC025
     FM222200 36010KT P6SM OVC028
     FM230000 36008KT P6SM BKN030
     FM230200 34005KT P6SM BKN035
     FM230600 33005KT P6SM SCT035=



000
FTUS41 KCLE 221700
TAFFDY
TAF
KFDY 221731Z 2218/2318 36010KT P6SM OVC018
     FM222000 36010KT P6SM OVC025
     FM222200 02010KT P6SM BKN035
     FM230000 02010KT P6SM SCT035
     FM230200 02004KT P6SM SKC=



000
FTUS41 KCLE 221700
TAFCAK
TAF
KCAK 221731Z 2218/2318 01011KT P6SM OVC015
     FM222000 36011KT P6SM OVC025
     FM222300 36010KT P6SM BKN030
     FM230000 36010KT P6SM BKN035
     FM230300 36004KT P6SM SCT035
     FM230900 33005KT 5SM BR SCT040=



000
FTUS41 KCLE 221700
TAFTOL
TAF
KTOL 221731Z 2218/2318 36010KT P6SM OVC024
     FM222000 36010KT P6SM BKN030
     FM222200 02010KT P6SM SCT035
     FM230000 02006KT P6SM SKC
     FM230200 VRB03KT P6SM SKC=



000
FTUS41 KCLE 221700
TAFCLE
TAF
KCLE 221731Z 2218/2324 01012KT P6SM OVC018
     FM222000 01012KT P6SM OVC025
     FM222200 01010KT P6SM BKN035
     FM230000 01008KT P6SM SCT040
     FM230600 01005KT P6SM SCT035
     FM231400 32008KT P6SM SCT250=



000
FTUS41 KCLE 221700
TAFYNG
TAF
KYNG 221731Z 2218/2318 36010KT P6SM OVC015
     FM222000 36010KT P6SM OVC025
     FM222200 36010KT P6SM OVC028
     FM230000 36008KT P6SM BKN030
     FM230200 34005KT P6SM BKN035
     FM230600 33005KT P6SM SCT035=



000
FTUS41 KCLE 221700
TAFERI
TAF
KERI 221731Z 2218/2318 02012KT P6SM OVC018
     FM222000 02012KT P6SM OVC025
     FM222200 02010KT P6SM BKN030
     FM230000 02010KT P6SM BKN035
     FM230200 36007KT P6SM BKN040
     FM230600 34005KT P6SM SCT040=



000
FTUS41 KCLE 221700
TAFMFD
TAF
KMFD 221731Z 2218/2318 34010KT 6SM BR OVC015
     FM222000 35010KT P6SM OVC020
     FM222200 35010KT P6SM BKN025
     FM230000 36008KT P6SM BKN035
     FM230200 34004KT P6SM SKC
     FM230900 VRB04KT 3SM BR SKC=



000
FTUS41 KCLE 221700
TAFFDY
TAF
KFDY 221731Z 2218/2318 36010KT P6SM OVC018
     FM222000 36010KT P6SM OVC025
     FM222200 02010KT P6SM BKN035
     FM230000 02010KT P6SM SCT035
     FM230200 02004KT P6SM SKC=



000
FTUS41 KCLE 221500 AAA
TAFTOL
TAF AMD
KTOL 221527Z 2215/2312 36010KT P6SM OVC018
     FM221800 36010KT P6SM BKN030
     FM221930 02010KT P6SM SCT035
     FM230000 02006KT P6SM SKC
     FM230200 VRB03KT P6SM SKC=



000
FTUS41 KCLE 221500 AAA
TAFFDY
TAF AMD
KFDY 221524Z 2215/2312 36010KT P6SM OVC018
     FM221800 36010KT P6SM OVC025
     FM221900 02010KT P6SM BKN035
     FM222000 02010KT P6SM SCT035
     FM222300 02004KT P6SM SKC=



000
FTUS41 KCLE 221500 AAA
TAFMFD
TAF AMD
KMFD 221523Z 2215/2312 34010KT 6SM BR OVC005
     FM221700 34010KT P6SM OVC010
     FM221800 36010KT P6SM OVC018
     FM222000 36010KT P6SM BKN025
     FM222200 36008KT P6SM BKN035
     FM230000 34004KT P6SM SKC
     FM230900 VRB04KT 3SM BR SKC=



000
FTUS41 KCLE 221500 AAA
TAFCAK
TAF AMD
KCAK 221519Z 2215/2312 36011KT P6SM OVC008
     FM221700 36011KT P6SM OVC010
     FM221800 36010KT P6SM OVC025
     FM222000 36010KT P6SM BKN035
     FM222300 36004KT P6SM SCT035=



000
FTUS41 KCLE 221500 AAA
TAFCLE
TAF AMD
KCLE 221517Z 2215/2318 01012G15KT P6SM OVC015
     FM221800 01012KT P6SM OVC025
     FM222000 01012KT P6SM BKN035
     FM222300 01006KT P6SM SCT035
     FM231400 32008KT P6SM SCT250=



000
FTUS41 KCLE 221100
TAFERI
TAF
KERI 221139Z 2212/2312 02012G20KT P6SM OVC012
     FM221600 02010KT P6SM OVC025
     FM221800 02010KT P6SM BKN035
     FM230100 36007KT P6SM BKN035=



000
FTUS41 KCLE 221100
TAFCLE
TAF
KCLE 221139Z 2212/2318 01010KT P6SM OVC015
     FM221500 01010KT P6SM OVC025
     FM221700 01010KT P6SM BKN035
     FM222300 01006KT P6SM SCT035
     FM231400 32008KT P6SM SCT250=



000
FTUS41 KCLE 221100
TAFTOL
TAF
KTOL 221139Z 2212/2312 36006KT P6SM OVC025
     FM221400 36008KT P6SM BKN025
     FM221630 02008KT P6SM SCT035
     FM222000 02006KT P6SM SKC
     FM230100 VRB03KT P6SM SKC=



000
FTUS41 KCLE 221100
TAFCAK
TAF
KCAK 221139Z 2212/2312 36010KT P6SM OVC007
     FM221430 36010KT P6SM OVC012
     FM221700 36010KT P6SM OVC025
     FM222000 36010KT P6SM BKN035
     FM222300 36004KT P6SM SCT035=



000
FTUS41 KCLE 221100
TAFMFD
TAF
KMFD 221139Z 2212/2312 34008KT 5SM BR OVC004
     FM221400 34010KT P6SM OVC008
     FM221500 36010KT P6SM OVC012
     FM221730 36010KT P6SM OVC025
     FM222000 36008KT P6SM BKN035
     FM222300 34004KT P6SM SKC
     FM230900 VRB04KT 3SM BR SKC=



000
FTUS41 KCLE 221100
TAFFDY
TAF
KFDY 221139Z 2212/2312 34006KT P6SM OVC018
     FM221500 36008KT P6SM OVC025
     FM221700 02008KT P6SM BKN035
     FM222000 02008KT P6SM SCT035
     FM222300 02004KT P6SM SKC=



000
FTUS41 KCLE 221100
TAFYNG
TAF
KYNG 221139Z 2212/2312 36010KT 6SM BR OVC004
     FM221300 36010KT P6SM OVC007
     FM221500 36010KT P6SM OVC012
     FM221700 36010KT P6SM OVC025
     FM222000 36008KT P6SM BKN035
     FM230000 34005KT P6SM BKN035=



000
FTUS41 KCLE 221000 AAA
TAFCAK
TAF AMD
KCAK 221053Z 2211/2306 36010KT P6SM OVC005
     FM221400 36010KT P6SM OVC012
     FM221800 36010KT P6SM OVC025
     FM222100 36010KT P6SM BKN035
     FM222300 36006KT P6SM SCT035=



000
FTUS41 KCLE 220900 AAB
TAFMFD
TAF AMD
KMFD 220955Z 2210/2306 32008KT 4SM BR OVC004
     FM221200 34008KT 5SM BR OVC008
     FM221400 34010KT P6SM OVC012
     FM221600 36010KT P6SM OVC015
     FM221800 36008KT P6SM OVC025
     FM222100 36008KT P6SM BKN035
     FM222300 36006KT P6SM SCT035=



000
FTUS41 KCLE 220900 AAB
TAFMFD
TAF AMD
KMFD 220955Z 2210/2306 32008KT 4SM BR OVC004
     FM221200 34008KT 5SM BR OVC008
     FM221400 34010KT P6SM OVC012
     FM221600 36010KT P6SM OVC015
     FM221800 36008KT P6SM OVC025
     FM222100 36008KT P6SM BKN035
     FM222300 36006KT P6SM SCT035=



000
FTUS41 KCLE 220900 AAA
TAFCLE
TAF AMD
KCLE 220901Z 2209/2312 02012KT P6SM OVC018
     FM221200 36010KT P6SM OVC020
     FM221700 36010KT P6SM BKN035
     FM222300 36007KT P6SM SCT035=



000
FTUS41 KCLE 220800 AAA
TAFMFD
TAF AMD
KMFD 220813Z 2208/2306 34008KT P6SM OVC008
     FM221300 34008KT P6SM OVC012
     FM221600 36010KT P6SM OVC015
     FM221800 36008KT P6SM OVC025
     FM222100 36008KT P6SM BKN035
     FM222300 36006KT P6SM SCT035=



000
FTUS41 KCLE 220800 AAA
TAFTOL
TAF AMD
KTOL 220813Z 2208/2306 34008KT P6SM OVC018
     FM221100 35006KT P6SM OVC025
     FM221400 36008KT P6SM BKN035
     FM221700 01008KT P6SM SCT035
     FM222200 01004KT P6SM SKC=



000
FTUS41 KCLE 220500
TAFCLE
TAF
KCLE 220538Z 2206/2312 36012KT P6SM OVC018
     FM221000 36010KT P6SM OVC020
     FM221700 36010KT P6SM BKN035
     FM222300 36007KT P6SM SCT035=



000
FTUS41 KCLE 220500
TAFFDY
TAF
KFDY 220538Z 2206/2306 35008KT P6SM OVC018
     FM221000 35008KT P6SM OVC025
     FM221700 02008KT P6SM BKN035
     FM222100 02006KT P6SM SCT035
     FM230000 02004KT P6SM SKC=



000
FTUS41 KCLE 220500
TAFCAK
TAF
KCAK 220538Z 2206/2306 36010KT P6SM OVC008
     FM221400 36010KT P6SM OVC012
     FM221800 36010KT P6SM OVC025
     FM222100 36010KT P6SM BKN035
     FM222300 36006KT P6SM SCT035=



000
FTUS41 KCLE 220500
TAFERI
TAF
KERI 220538Z 2206/2306 03012G20KT P6SM OVC012
     FM220900 02010KT P6SM OVC015
     FM221300 02010KT P6SM OVC025
     FM221800 02010KT P6SM OVC035
     FM230100 36007KT P6SM SCT035=



000
FTUS41 KCLE 220500
TAFMFD
TAF
KMFD 220538Z 2206/2306 34008KT P6SM OVC008
      TEMPO 2206/2209 4SM -RA BR OVC004
     FM221300 34008KT P6SM OVC012
     FM221600 36010KT P6SM OVC015
     FM221800 36008KT P6SM OVC025
     FM222100 36008KT P6SM BKN035
     FM222300 36006KT P6SM SCT035=



000
FTUS41 KCLE 220500
TAFYNG
TAF
KYNG 220538Z 2206/2306 36010KT P6SM OVC008
      TEMPO 2206/2210 5SM -RA BR
     FM221200 36010KT P6SM OVC012
     FM221700 36010KT P6SM OVC025
     FM222100 36010KT P6SM BKN035
     FM230000 34006KT P6SM BKN035=



000
FTUS41 KCLE 220500
TAFERI
TAF
KERI 220538Z 2206/2306 03012G20KT P6SM OVC012
     FM220900 02010KT P6SM OVC015
     FM221300 02010KT P6SM OVC025
     FM221800 02010KT P6SM OVC035
     FM230100 36007KT P6SM SCT035=



000
FTUS41 KCLE 220500
TAFCAK
TAF
KCAK 220538Z 2206/2306 36010KT P6SM OVC008
     FM221400 36010KT P6SM OVC012
     FM221800 36010KT P6SM OVC025
     FM222100 36010KT P6SM BKN035
     FM222300 36006KT P6SM SCT035=



000
FTUS41 KCLE 220500
TAFYNG
TAF
KYNG 220538Z 2206/2306 36010KT P6SM OVC008
      TEMPO 2206/2210 5SM -RA BR
     FM221200 36010KT P6SM OVC012
     FM221700 36010KT P6SM OVC025
     FM222100 36010KT P6SM BKN035
     FM230000 34006KT P6SM BKN035=



000
FTUS41 KCLE 220500
TAFFDY
TAF
KFDY 220538Z 2206/2306 35008KT P6SM OVC018
     FM221000 35008KT P6SM OVC025
     FM221700 02008KT P6SM BKN035
     FM222100 02006KT P6SM SCT035
     FM230000 02004KT P6SM SKC=



000
FTUS41 KCLE 220500
TAFTOL
TAF
KTOL 220538Z 2206/2306 35006KT P6SM OVC025
     FM221400 36008KT P6SM BKN035
     FM221700 01008KT P6SM SCT035
     FM222200 01004KT P6SM SKC=



000
FTUS41 KCLE 220500
TAFMFD
TAF
KMFD 220538Z 2206/2306 34008KT P6SM OVC008
      TEMPO 2206/2209 4SM -RA BR OVC004
     FM221300 34008KT P6SM OVC012
     FM221600 36010KT P6SM OVC015
     FM221800 36008KT P6SM OVC025
     FM222100 36008KT P6SM BKN035
     FM222300 36006KT P6SM SCT035=



000
FTUS41 KCLE 220500
TAFCLE
TAF
KCLE 220538Z 2206/2312 36012KT P6SM OVC018
     FM221000 36010KT P6SM OVC020
     FM221700 36010KT P6SM BKN035
     FM222300 36007KT P6SM SCT035=



000
FTUS41 KCLE 220500
TAFTOL
TAF
KTOL 220538Z 2206/2306 35006KT P6SM OVC025
     FM221400 36008KT P6SM BKN035
     FM221700 01008KT P6SM SCT035
     FM222200 01004KT P6SM SKC=



000
FTUS41 KCLE 220300 AAB
TAFFDY
TAF AMD
KFDY 220352Z 2204/2224 36008KT P6SM OVC018
     FM221000 36008KT P6SM OVC025
     FM221500 36008KT P6SM BKN035
     FM221800 01008KT P6SM SCT035=



000
FTUS41 KCLE 220300 AAC
TAFMFD
TAF AMD
KMFD 220350Z 2204/2224 34010KT 4SM BR OVC003
     FM221300 35010KT P6SM BKN008 OVC012
     FM221600 35010KT P6SM OVC015
     FM221900 35008KT P6SM OVC025
     FM222100 35008KT P6SM BKN035=



000
FTUS41 KCLE 220300 AAA
TAFTOL
TAF AMD
KTOL 220300Z 2203/2224 36008KT P6SM OVC025
     FM221500 36008KT P6SM BKN035
     FM221800 01008KT P6SM SCT035=



000
FTUS41 KCLE 220200 AAB
TAFCLE
TAF AMD
KCLE 220256Z 2203/2306 35012KT P6SM OVC018
      TEMPO 2204/2206 6SM -SHRA
     FM221000 36012KT P6SM OVC020
     FM222000 36010KT P6SM BKN035
     FM230100 36008KT P6SM SCT035=



000
FTUS41 KCLE 220200 AAB
TAFCLE
TAF AMD
KCLE 220256Z 2203/2306 35012KT P6SM OVC018
      TEMPO 2204/2206 6SM -SHRA
     FM221000 36012KT P6SM OVC020
     FM222000 36010KT P6SM BKN035
     FM230100 36008KT P6SM SCT035=



000
FTUS41 KCLE 220200 AAA
TAFERI
TAF AMD
KERI 220243Z 2203/2224 02012G22KT 6SM -SHRA OVC012
      TEMPO 2203/2205 4SM -SHRA OVC008
     FM220500 02012KT P6SM OVC015
     FM221300 01010KT P6SM OVC025
     FM221800 36010KT P6SM OVC035=



000
FTUS41 KCLE 220200 AAB
TAFMFD
TAF AMD
KMFD 220204Z 2202/2224 34012KT 5SM -DZ BR BKN005 OVC012
     FM220600 35010KT P6SM BKN008 OVC012
     FM221000 35010KT P6SM OVC015
     FM221700 35008KT P6SM OVC025
     FM222100 35008KT P6SM BKN035=



000
FTUS41 KCLE 220200 AAB
TAFMFD
TAF AMD
KMFD 220204Z 2202/2224 34012KT 5SM -DZ BR BKN005 OVC012
     FM220600 35010KT P6SM BKN008 OVC012
     FM221000 35010KT P6SM OVC015
     FM221700 35008KT P6SM OVC025
     FM222100 35008KT P6SM BKN035=



000
FTUS41 KCLE 220100 AAA
TAFCAK
TAF AMD
KCAK 220156Z 2202/2224 34012KT 6SM -RA BR BKN006 OVC015
      TEMPO 2202/2206 4SM -RA BR
     FM220600 35010KT P6SM OVC008
     FM221400 36010KT P6SM OVC015
     FM221800 36010KT P6SM OVC025
     FM222200 36010KT P6SM BKN035=



000
FTUS41 KCLE 220100 AAA
TAFCAK
TAF AMD
KCAK 220156Z 2202/2224 34012KT 6SM -RA BR BKN006 OVC015
      TEMPO 2202/2206 4SM -RA BR
     FM220600 35010KT P6SM OVC008
     FM221400 36010KT P6SM OVC015
     FM221800 36010KT P6SM OVC025
     FM222200 36010KT P6SM BKN035=



000
FTUS41 KCLE 220100 AAA
TAFCLE
TAF AMD
KCLE 220142Z 2202/2306 35012KT 6SM -RA BR SCT008 OVC018
     FM220300 36012KT P6SM OVC020
     FM222000 36010KT P6SM BKN035
     FM230100 36008KT P6SM SCT035=



000
FTUS41 KCLE 220100 AAA
TAFFDY
TAF AMD
KFDY 220139Z 2202/2224 36008KT P6SM OVC025
      TEMPO 2202/2205 5SM -SHRA OVC018
     FM221500 36008KT P6SM BKN035
     FM221800 01008KT P6SM SCT035=



000
FTUS41 KCLE 220100 AAA
TAFYNG
TAF AMD
KYNG 220130Z 2202/2224 36010KT P6SM OVC008
     FM220700 36010KT P6SM OVC012
     FM221700 36010KT P6SM OVC025
     FM222100 36010KT P6SM BKN035=



000
FTUS41 KCLE 212300 CCA
TAFERI
TAF COR
KERI 212357Z 2200/2224 02012G20KT 6SM -SHRA OVC012
      TEMPO 2200/2201 4SM -SHRA OVC008
     FM220300 02012KT P6SM OVC015
     FM221300 01010KT P6SM OVC025
     FM221800 36010KT P6SM OVC035=



000
FTUS41 KCLE 212300 AAA
TAFMFD
TAF AMD
KMFD 212355Z 2200/2224 35012KT 5SM -RA BR BKN008 OVC012
      TEMPO 2201/2205 2SM -DZ BR
     FM220600 35010KT P6SM OVC012
     FM221700 35008KT P6SM OVC025
     FM222100 35008KT P6SM BKN035=



000
FTUS41 KCLE 212300
TAFCAK
TAF
KCAK 212338Z 2200/2224 34010KT 4SM -RA BR BKN006 OVC015
      TEMPO 2200/2204 2SM -RA
     FM220600 35010KT P6SM OVC008
     FM221400 36010KT P6SM OVC015
     FM221800 36010KT P6SM OVC025
     FM222200 36010KT P6SM BKN035=



000
FTUS41 KCLE 212300
TAFFDY
TAF
KFDY 212338Z 2200/2224 36008KT P6SM OVC025
     FM221500 36008KT P6SM BKN035
     FM221800 01008KT P6SM SCT035=



000
FTUS41 KCLE 212300
TAFCLE
TAF
KCLE 212338Z 2200/2306 34012KT 6SM -RA BR SCT008 OVC015
      TEMPO 2200/2203 4SM -RA BR BKN008 OVC015
     FM220400 35010KT P6SM SCT008 OVC018
     FM221500 36012KT P6SM OVC020
     FM222000 36010KT P6SM BKN035
     FM230100 36008KT P6SM SCT035=



000
FTUS41 KCLE 212300
TAFYNG
TAF
KYNG 212338Z 2200/2224 33008KT 6SM -DZ BR OVC006
      TEMPO 2200/2203 4SM -DZ BR
     FM220400 35008KT P6SM OVC008
      TEMPO 2204/2207 5SM -DZ BR
     FM221400 36010KT P6SM OVC015
     FM221700 36010KT P6SM OVC025=



000
FTUS41 KCLE 212300
TAFMFD
TAF
KMFD 212338Z 2200/2224 35012KT P6SM SCT008 OVC012
      TEMPO 2201/2205 4SM -DZ BR OVC008
     FM221700 35008KT P6SM OVC025
     FM222100 35008KT P6SM BKN035=



000
FTUS41 KCLE 212300
TAFERI
TAF
KERI 212338Z 2200/2224 02010KT 6SM -SHRA OVC008
      TEMPO 2200/2201 4SM -SHRA
     FM220300 02010KT P6SM OVC015
     FM221300 01010KT P6SM OVC025
     FM221800 36010KT P6SM OVC035=



000
FTUS41 KCLE 212300
TAFTOL
TAF
KTOL 212338Z 2200/2224 36010KT P6SM OVC025
     FM220300 36010KT P6SM OVC018
     FM220900 36010KT P6SM OVC025
     FM221500 36008KT P6SM BKN035
     FM221800 01008KT P6SM SCT035=



000
FTUS41 KCLE 212300 AAA
TAFTOL
TAF AMD
KTOL 212320Z 2123/2218 35010KT P6SM SCT015 OVC025
     FM220300 36010KT P6SM OVC015
     FM220900 36010KT P6SM OVC025
     FM221500 36008KT P6SM BKN035=



000
FTUS41 KCLE 212300 AAA
TAFTOL
TAF AMD
KTOL 212320Z 2123/2218 35010KT P6SM SCT015 OVC025
     FM220300 36010KT P6SM OVC015
     FM220900 36010KT P6SM OVC025
     FM221500 36008KT P6SM BKN035=



000
FTUS41 KCLE 212200 AAB
TAFYNG
TAF AMD
KYNG 212259Z 2123/2218 32008KT 6SM -DZ BR OVC004
     FM220000 32008KT 4SM -RA BR OVC004
      TEMPO 2200/2203 2SM -RA BR
     FM220400 35008KT P6SM OVC008
      TEMPO 2204/2207 5SM -DZ BR
     FM221400 36010KT P6SM OVC015
     FM221700 36010KT P6SM OVC025=



000
FTUS41 KCLE 212200 AAB
TAFYNG
TAF AMD
KYNG 212259Z 2123/2218 32008KT 6SM -DZ BR OVC004
     FM220000 32008KT 4SM -RA BR OVC004
      TEMPO 2200/2203 2SM -RA BR
     FM220400 35008KT P6SM OVC008
      TEMPO 2204/2207 5SM -DZ BR
     FM221400 36010KT P6SM OVC015
     FM221700 36010KT P6SM OVC025=



000
FTUS41 KCLE 212200 AAB
TAFCAK
TAF AMD
KCAK 212246Z 2123/2218 34010KT 4SM -RA BR BKN006 OVC015
      TEMPO 2123/2203 2SM -RA
     FM220600 35010KT P6SM OVC008
     FM221400 36010KT P6SM OVC015=



000
FTUS41 KCLE 212200 AAB
TAFCAK
TAF AMD
KCAK 212246Z 2123/2218 34010KT 4SM -RA BR BKN006 OVC015
      TEMPO 2123/2203 2SM -RA
     FM220600 35010KT P6SM OVC008
     FM221400 36010KT P6SM OVC015=



000
FTUS41 KCLE 212200 AAB
TAFCLE
TAF AMD
KCLE 212233Z 2123/2224 34010KT 5SM -SHRA BR SCT008 OVC015
      TEMPO 2123/2203 2SM -SHRA BKN008 OVC015
     FM220500 35010KT P6SM SCT008 OVC012
     FM221500 36012KT P6SM OVC020
     FM222000 36010KT P6SM BKN035=



000
FTUS41 KCLE 212200 AAA
TAFMFD
TAF AMD
KMFD 212224Z 2122/2218 35012KT P6SM SCT008 OVC012
      TEMPO 2201/2204 4SM -DZ BR OVC008
     FM220400 36008KT P6SM OVC008
     FM221500 35008KT P6SM OVC015=



000
FTUS41 KCLE 212200 AAA
TAFFDY
TAF AMD
KFDY 212223Z 2122/2218 36008KT P6SM OVC030
     FM221500 36008KT P6SM BKN035=



000
FTUS41 KCLE 212200 AAA
TAFTOL
TAF AMD
KTOL 212222Z 2122/2218 35010KT P6SM OVC035
     FM220100 36010KT P6SM OVC030
     FM221500 36008KT P6SM BKN035=



000
FTUS41 KCLE 212100 AAA
TAFERI
TAF AMD
KERI 212145Z 2122/2218 01010KT P6SM VCSH SCT005 OVC018
      TEMPO 2122/2124 3SM -SHRA BKN005 OVC018
     FM220300 01010KT P6SM OVC015
      TEMPO 2203/2207 -SHRA
     FM220900 02008KT P6SM OVC025
     FM221500 02010KT P6SM OVC035=



000
FTUS41 KCLE 212100 AAA
TAFERI
TAF AMD
KERI 212145Z 2122/2218 01010KT P6SM VCSH SCT005 OVC018
      TEMPO 2122/2124 3SM -SHRA BKN005 OVC018
     FM220300 01010KT P6SM OVC015
      TEMPO 2203/2207 -SHRA
     FM220900 02008KT P6SM OVC025
     FM221500 02010KT P6SM OVC035=



000
FTUS41 KCLE 212100 AAA
TAFYNG
TAF AMD
KYNG 212143Z 2122/2218 31008KT 4SM -DZ BR OVC006
      TEMPO 2122/2202 2SM -DZ BR
     FM220300 35010KT P6SM OVC015
      TEMPO 2203/2207 -RA OVC008
     FM221200 36010KT P6SM OVC025=



000
FTUS41 KCLE 212100 AAA
TAFYNG
TAF AMD
KYNG 212143Z 2122/2218 31008KT 4SM -DZ BR OVC006
      TEMPO 2122/2202 2SM -DZ BR
     FM220300 35010KT P6SM OVC015
      TEMPO 2203/2207 -RA OVC008
     FM221200 36010KT P6SM OVC025=



000
FTUS41 KCLE 212100 AAA
TAFCLE
TAF AMD
KCLE 212140Z 2122/2224 34012KT 6SM -SHRA BKN015 OVC025
      TEMPO 2122/2202 4SM -RA
     FM220400 35008KT P6SM OVC025
     FM221400 36010KT P6SM OVC040=



000
FTUS41 KCLE 212100 AAA
TAFCLE
TAF AMD
KCLE 212140Z 2122/2224 34012KT 6SM -SHRA BKN015 OVC025
      TEMPO 2122/2202 4SM -RA
     FM220400 35008KT P6SM OVC025
     FM221400 36010KT P6SM OVC040=



000
FTUS41 KCLE 212100 AAA
TAFCAK
TAF AMD
KCAK 212124Z 2121/2218 33012KT 4SM -RA BR SCT006 OVC015
      TEMPO 2123/2202 2SM -RA BKN006 OVC015
     FM220300 35010KT P6SM SCT008 OVC015
      TEMPO 2203/2206 -RA OVC008
     FM221200 36010KT P6SM OVC025=



000
FTUS41 KCLE 211700
TAFMFD
TAF
KMFD 211730Z 2118/2218 34012G20KT 6SM -DZ OVC008
      TEMPO 2118/2120 3SM -RA BR SCT008 OVC015
     FM212000 35012KT P6SM VCSH OVC015
     FM220300 35008KT P6SM OVC025
     FM221400 35008KT P6SM BKN030=



000
FTUS41 KCLE 211700
TAFCAK
TAF
KCAK 211730Z 2118/2218 33012KT 4SM -DZ BKN008 OVC015
      TEMPO 2118/2121 2SM -RA BR SCT008 OVC015
     FM212100 33010G18KT P6SM -RA OVC015
     FM220200 35010KT P6SM OVC015
      TEMPO 2202/2206 -RA OVC008
     FM221200 36010KT P6SM OVC025=



000
FTUS41 KCLE 211700
TAFCLE
TAF
KCLE 211730Z 2118/2224 34012G20KT P6SM OVC025
      TEMPO 2118/2122 5SM -RA OVC015
     FM212200 35012KT P6SM VCSH OVC025
     FM220400 35008KT P6SM OVC030
     FM221400 36010KT P6SM OVC040=



000
FTUS41 KCLE 211700
TAFTOL
TAF
KTOL 211730Z 2118/2218 01012G20KT P6SM OVC025
     FM220000 36010KT P6SM BKN035
     FM221200 36008KT P6SM SCT035=



000
FTUS41 KCLE 211700
TAFERI
TAF
KERI 211730Z 2118/2218 34010KT P6SM VCSH OVC015
     FM212100 36012G20KT P6SM VCSH OVC025
     FM220300 01010KT P6SM OVC015
      TEMPO 2203/2207 -SHRA
     FM220900 02008KT P6SM OVC025
     FM221500 02010KT P6SM OVC035=



000
FTUS41 KCLE 211700
TAFYNG
TAF
KYNG 211730Z 2118/2218 33012G20KT 2SM -RA OVC006
      TEMPO 2118/2122 4SM -RA BR SCT006 OVC015
     FM212200 33010G18KT P6SM -RA OVC015
     FM220300 35010KT P6SM OVC015
      TEMPO 2203/2207 -RA OVC008
     FM221200 36010KT P6SM OVC025=



000
FTUS41 KCLE 211700
TAFFDY
TAF
KFDY 211730Z 2118/2218 33012G20KT P6SM VCSH OVC015
     FM212100 36012G20KT P6SM OVC025
     FM220200 36010KT P6SM BKN035
     FM221400 36008KT P6SM SCT035=



000
FTUS41 KCLE 211400 AAA
TAFCLE
TAF AMD
KCLE 211445Z 2115/2218 35012G20KT 5SM -DZ BR OVC015
      TEMPO 2115/2118 3SM -RA BR OVC008
     FM211800 36014G22KT P6SM VCSH OVC025
     FM220300 36010KT P6SM VCSH OVC018=



000
FTUS41 KCLE 211100
TAFERI
TAF
KERI 211126Z 2112/2212 33007KT 6SM BR SCT015 OVC035
      TEMPO 2112/2116 3SM -SHRA BR OVC015
     FM211700 32012KT 6SM -SHRA BR OVC018=



000
FTUS41 KCLE 211100
TAFMFD
TAF
KMFD 211126Z 2112/2212 32009KT 6SM BR OVC007
      TEMPO 2112/2115 3SM -DZ BR OVC005
     FM211500 32011KT 6SM BR SCT008 OVC015
     FM211900 33012G18KT P6SM OVC020
     FM220200 33009KT P6SM OVC018
     FM220800 34007KT 4SM BR OVC015=



000
FTUS41 KCLE 211100
TAFCAK
TAF
KCAK 211126Z 2112/2212 29008KT 4SM -DZ BR SCT008 OVC035
      TEMPO 2112/2115 1 1/2SM -SHRA BR BKN008
     FM211500 32011KT 4SM BR VCSH SCT008 OVC015
     FM211900 33010G16KT 6SM HZ VCSH OVC020
     FM220200 35008KT 5SM BR VCSH OVC015=



000
FTUS41 KCLE 211100
TAFCLE
TAF
KCLE 211126Z 2112/2218 33011KT P6SM OVC025
      TEMPO 2112/2116 3SM -RA BR BKN015
     FM211800 33014G20KT P6SM VCSH OVC020
     FM220300 36010KT P6SM VCSH OVC018=



000
FTUS41 KCLE 211100
TAFYNG
TAF
KYNG 211126Z 2112/2212 30008KT 3SM -DZ BKN006 OVC035
      TEMPO 2112/2116 1 1/2SM -SHRA BR SCT006 OVC030
     FM211600 31011KT 5SM -SHRA BR SCT008 OVC015
     FM212000 33010G16KT 6SM HZ VCSH OVC018
     FM220200 34008KT 5SM BR VCSH OVC015=



000
FTUS41 KCLE 211100
TAFFDY
TAF
KFDY 211126Z 2112/2212 32009KT P6SM SCT015 OVC035
      TEMPO 2112/2115 5SM -DZ BR BKN015
     FM211500 34012G20KT P6SM OVC025
     FM220200 36009KT P6SM BKN030=



000
FTUS41 KCLE 211100
TAFTOL
TAF
KTOL 211126Z 2112/2212 32008KT P6SM SCT015 OVC025
      TEMPO 2112/2115 5SM -DZ BR BKN015
     FM211500 34012G20KT P6SM OVC025
     FM220200 36009KT P6SM BKN030=



000
FTUS41 KCLE 211100
TAFFDY
TAF
KFDY 211126Z 2112/2212 32009KT P6SM SCT015 OVC035
      TEMPO 2112/2115 5SM -DZ BR BKN015
     FM211500 34012G20KT P6SM OVC025
     FM220200 36009KT P6SM BKN030=



000
FTUS41 KCLE 211100
TAFTOL
TAF
KTOL 211126Z 2112/2212 32008KT P6SM SCT015 OVC025
      TEMPO 2112/2115 5SM -DZ BR BKN015
     FM211500 34012G20KT P6SM OVC025
     FM220200 36009KT P6SM BKN030=



000
FTUS41 KCLE 211100
TAFYNG
TAF
KYNG 211126Z 2112/2212 30008KT 3SM -DZ BKN006 OVC035
      TEMPO 2112/2116 1 1/2SM -SHRA BR SCT006 OVC030
     FM211600 31011KT 5SM -SHRA BR SCT008 OVC015
     FM212000 33010G16KT 6SM HZ VCSH OVC018
     FM220200 34008KT 5SM BR VCSH OVC015=



000
FTUS41 KCLE 211100
TAFCAK
TAF
KCAK 211126Z 2112/2212 29008KT 4SM -DZ BR SCT008 OVC035
      TEMPO 2112/2115 1 1/2SM -SHRA BR BKN008
     FM211500 32011KT 4SM BR VCSH SCT008 OVC015
     FM211900 33010G16KT 6SM HZ VCSH OVC020
     FM220200 35008KT 5SM BR VCSH OVC015=



000
FTUS41 KCLE 211100
TAFERI
TAF
KERI 211126Z 2112/2212 33007KT 6SM BR SCT015 OVC035
      TEMPO 2112/2116 3SM -SHRA BR OVC015
     FM211700 32012KT 6SM -SHRA BR OVC018=



000
FTUS41 KCLE 211100
TAFMFD
TAF
KMFD 211126Z 2112/2212 32009KT 6SM BR OVC007
      TEMPO 2112/2115 3SM -DZ BR OVC005
     FM211500 32011KT 6SM BR SCT008 OVC015
     FM211900 33012G18KT P6SM OVC020
     FM220200 33009KT P6SM OVC018
     FM220800 34007KT 4SM BR OVC015=



000
FTUS41 KCLE 211100
TAFCLE
TAF
KCLE 211126Z 2112/2218 33011KT P6SM OVC025
      TEMPO 2112/2116 3SM -RA BR BKN015
     FM211800 33014G20KT P6SM VCSH OVC020
     FM220300 36010KT P6SM VCSH OVC018=



000
FTUS41 KCLE 210900 AAA
TAFERI
TAF AMD
KERI 210925Z 2109/2206 33008KT 6SM BR BKN015 OVC025
      TEMPO 2109/2113 3SM -RA BR BKN008
     FM211700 32012KT 6SM -SHRA BR OVC012=



000
FTUS41 KCLE 210800 AAB
TAFCLE
TAF AMD
KCLE 210855Z 2109/2212 33009KT 4SM BR SCT008 OVC018
      TEMPO 2109/2113 2SM -RA BR BKN008
     FM211300 32012KT 4SM BR VCSH OVC012
     FM212000 33014G20KT P6SM VCSH OVC020
     FM220300 36010KT P6SM VCSH OVC018=



000
FTUS41 KCLE 210800 AAA
TAFCLE
TAF AMD
KCLE 210810Z 2108/2212 33008KT 4SM -DZ BR SCT015 OVC025
      TEMPO 2108/2112 2SM -RA BR BKN012
     FM211200 32011KT 4SM BR VCSH OVC012
     FM212000 33014G20KT P6SM VCSH OVC020
     FM220300 36010KT P6SM VCSH OVC018=



000
FTUS41 KCLE 210800 AAA
TAFMFD
TAF AMD
KMFD 210807Z 2108/2206 30006KT 2SM BR OVC003
      TEMPO 2109/2113 3SM -DZ BR OVC006
     FM211300 30009KT 3SM BR BKN006 OVC015
     FM211500 32011KT 6SM BR SCT008 OVC015
     FM211900 33012G18KT P6SM OVC020
     FM220200 33009KT P6SM OVC018=



000
FTUS41 KCLE 210800 AAA
TAFFDY
TAF AMD
KFDY 210804Z 2108/2206 33009KT P6SM BKN015 OVC030
      TEMPO 2108/2111 SCT015 BKN030
     FM211500 33012G20KT P6SM OVC025
     FM220200 36009KT P6SM BKN030=



000
FTUS41 KCLE 210500 CCA
TAFYNG
TAF COR
KYNG 210540Z 2106/2206 24006KT 5SM -DZ BR BKN007 OVC015
      TEMPO 2106/2110 2SM -DZ BR BKN005
     FM211000 30008KT 3SM -DZ BKN005 OVC015
     FM211600 31011KT 5SM BR VCSH SCT008 OVC015
     FM212000 33010G16KT 6SM HZ VCSH OVC018
     FM220200 34008KT 5SM BR VCSH OVC015=



000
FTUS41 KCLE 210500
TAFFDY
TAF
KFDY 210537Z 2106/2206 30008KT P6SM BKN025 OVC050
      TEMPO 2106/2110 SCT025 BKN050
     FM211100 32008KT P6SM BKN018 OVC040
     FM211500 33012G20KT P6SM OVC025
     FM220200 36009KT P6SM BKN030=



000
FTUS41 KCLE 210500
TAFCLE
TAF
KCLE 210537Z 2106/2212 28008KT 4SM BR SCT007 OVC015
      TEMPO 2106/2108 2SM -RA BR BKN007
     FM210800 29008KT 5SM -DZ BR BKN007 OVC015
     FM211500 32012G18KT 6SM BR VCSH OVC015
     FM212000 33014G20KT P6SM VCSH OVC020
     FM220300 36010KT P6SM VCSH OVC018=



000
FTUS41 KCLE 210500
TAFERI
TAF
KERI 210537Z 2106/2206 22008KT 6SM BR BKN015 OVC025
      TEMPO 2106/2109 4SM -SHRA BR BKN008
     FM210900 27008KT 3SM -DZ BR BKN006 OVC012
     FM211700 32012KT 6SM -SHRA BR OVC012=



000
FTUS41 KCLE 210500
TAFMFD
TAF
KMFD 210537Z 2106/2206 30006KT 5SM BR BKN008
     FM210900 30007KT 3SM BR BKN006 OVC050
     FM211500 32011KT 6SM BR SCT008 OVC015
     FM211900 33012G18KT P6SM OVC020
     FM220200 33009KT P6SM OVC018=



000
FTUS41 KCLE 210500
TAFCAK
TAF
KCAK 210537Z 2106/2206 27006KT 4SM -DZ BR BKN004 OVC018
      TEMPO 2106/2110 2SM -DZ BR BKN006
     FM211500 32011KT 4SM BR VCSH SCT008 OVC015
     FM211900 33010G16KT 6SM HZ VCSH OVC020
     FM220200 35008KT 5SM BR VCSH OVC015=



000
FTUS41 KCLE 210500
TAFTOL
TAF
KTOL 210537Z 2106/2206 32007KT P6SM BKN025 OVC050
      TEMPO 2106/2110 SCT018 BKN050
     FM211100 32008KT P6SM BKN018 OVC040
     FM211500 33012G20KT P6SM OVC025
     FM220200 36009KT P6SM BKN030=



000
FTUS41 KCLE 210500
TAFYNG
TAF
KYNG 210537Z 2106/2206 24006KT 6SM -DZ BR SCT006 OVC015
      TEMPO 2106/2110 3SM -DZ BR BKN006
     FM211000 30008KT 3SM -DZ BKN006 OVC015
     FM211600 31011KT 5SM BR VCSH SCT008 OVC015
     FM212000 33010G16KT 6SM HZ VCSH OVC018
     FM220200 34008KT 5SM BR VCSH OVC015=



000
FTUS41 KCLE 210300 AAC
TAFMFD
TAF AMD
KMFD 210318Z 2103/2124 27006KT P6SM SCT008 OVC015
      TEMPO 2103/2107 2SM -DZ BR OVC008
     FM210700 30010KT 3SM -DZ BR OVC006
     FM211500 32010G18KT 6SM BR SCT008 OVC015=



000
FTUS41 KCLE 210300 AAC
TAFMFD
TAF AMD
KMFD 210318Z 2103/2124 27006KT P6SM SCT008 OVC015
      TEMPO 2103/2107 2SM -DZ BR OVC008
     FM210700 30010KT 3SM -DZ BR OVC006
     FM211500 32010G18KT 6SM BR SCT008 OVC015=



000
FTUS41 KCLE 210200 AAD
TAFCLE
TAF AMD
KCLE 210253Z 2103/2206 24008KT 5SM BR SCT008 OVC025
      TEMPO 2103/2106 3SM -SHRA BR BKN006 OVC015
     FM210600 27008KT 6SM BR VCSH OVC015
     FM210800 30010KT 5SM -DZ BR BKN008 OVC015
     FM211500 32012G20KT 6SM BR VCSH OVC015=



000
FTUS41 KCLE 210200 AAD
TAFCLE
TAF AMD
KCLE 210253Z 2103/2206 24008KT 5SM BR SCT008 OVC025
      TEMPO 2103/2106 3SM -SHRA BR BKN006 OVC015
     FM210600 27008KT 6SM BR VCSH OVC015
     FM210800 30010KT 5SM -DZ BR BKN008 OVC015
     FM211500 32012G20KT 6SM BR VCSH OVC015=



000
FTUS41 KCLE 210200 AAC
TAFCLE
TAF AMD
KCLE 210232Z 2103/2206 24008KT 5SM BR SCT008 OVC035
      TEMPO 2103/2104 3SM -SHRA BR BKN006 OVC015
     FM210400 27008KT 6SM BR VCSH OVC015
     FM210800 30010KT 5SM -DZ BR BKN008 OVC015
     FM211500 32012G20KT 6SM BR VCSH OVC015=



000
FTUS41 KCLE 210200 AAA
TAFYNG
TAF AMD
KYNG 210209Z 2102/2124 21007KT 6SM -SHRA BKN015 OVC025
      TEMPO 2103/2106 3SM -SHRA BR BKN008 OVC012
     FM210600 28006KT 6SM BR VCSH OVC015
     FM211000 30008KT 5SM -DZ BKN008 OVC015
     FM211600 32012KT 4SM BR SCT008 OVC015=



000
FTUS41 KCLE 210200 AAA
TAFYNG
TAF AMD
KYNG 210209Z 2102/2124 21007KT 6SM -SHRA BKN015 OVC025
      TEMPO 2103/2106 3SM -SHRA BR BKN008 OVC012
     FM210600 28006KT 6SM BR VCSH OVC015
     FM211000 30008KT 5SM -DZ BKN008 OVC015
     FM211600 32012KT 4SM BR SCT008 OVC015=



000
FTUS41 KCLE 210200 AAB
TAFMFD
TAF AMD
KMFD 210208Z 2102/2124 25006KT P6SM SCT008 OVC015
      TEMPO 2105/2108 2SM -DZ BR OVC008
     FM211000 30010KT 3SM -DZ BR OVC006
     FM211500 32010G18KT 6SM BR SCT008 OVC015=



000
FTUS41 KCLE 210200 AAB
TAFMFD
TAF AMD
KMFD 210208Z 2102/2124 25006KT P6SM SCT008 OVC015
      TEMPO 2105/2108 2SM -DZ BR OVC008
     FM211000 30010KT 3SM -DZ BR OVC006
     FM211500 32010G18KT 6SM BR SCT008 OVC015=



000
FTUS41 KCLE 210200 AAB
TAFCLE
TAF AMD
KCLE 210206Z 2102/2206 24008KT 5SM BR SCT008 OVC035
      TEMPO 2102/2104 3SM -SHRA BR SCT008 OVC015
     FM210400 27008KT 6SM BR VCSH OVC015
     FM210800 30010KT 5SM -DZ BR BKN008 OVC015
     FM211500 32012G20KT 6SM BR VCSH OVC015=



000
FTUS41 KCLE 210200 AAB
TAFCLE
TAF AMD
KCLE 210206Z 2102/2206 24008KT 5SM BR SCT008 OVC035
      TEMPO 2102/2104 3SM -SHRA BR SCT008 OVC015
     FM210400 27008KT 6SM BR VCSH OVC015
     FM210800 30010KT 5SM -DZ BR BKN008 OVC015
     FM211500 32012G20KT 6SM BR VCSH OVC015=



000
FTUS41 KCLE 210200 AAA
TAFFDY
TAF AMD
KFDY 210204Z 2102/2124 28006KT 5SM BR SCT025 OVC050
      TEMPO 2103/2105 SCT015 OVC025
     FM210500 32010KT P6SM OVC015
     FM211400 32012G20KT P6SM SCT015 OVC025
     FM212300 34008KT P6SM OVC035=



000
FTUS41 KCLE 210200 AAA
TAFFDY
TAF AMD
KFDY 210204Z 2102/2124 28006KT 5SM BR SCT025 OVC050
      TEMPO 2103/2105 SCT015 OVC025
     FM210500 32010KT P6SM OVC015
     FM211400 32012G20KT P6SM SCT015 OVC025
     FM212300 34008KT P6SM OVC035=



000
FTUS41 KCLE 210200 AAA
TAFTOL
TAF AMD
KTOL 210203Z 2102/2124 27006KT P6SM SCT025 OVC050
      TEMPO 2103/2105 -SHRA SCT012 OVC025
     FM210600 32008KT P6SM OVC015
     FM211400 33012G20KT P6SM SCT015 OVC025=



000
FTUS41 KCLE 210200 AAA
TAFTOL
TAF AMD
KTOL 210203Z 2102/2124 27006KT P6SM SCT025 OVC050
      TEMPO 2103/2105 -SHRA SCT012 OVC025
     FM210600 32008KT P6SM OVC015
     FM211400 33012G20KT P6SM SCT015 OVC025=



000
FTUS41 KCLE 210200 AAA
TAFCAK
TAF AMD
KCAK 210201Z 2102/2124 21007KT 6SM -SHRA SCT025 OVC035
      TEMPO 2102/2104 3SM -SHRA BR BKN008 OVC015
     FM210500 28006KT 6SM BR VCSH OVC015
     FM210900 30008KT 5SM -DZ BKN008 OVC015
     FM211500 32012KT 4SM BR SCT008 OVC015=



000
FTUS41 KCLE 210200 AAA
TAFCAK
TAF AMD
KCAK 210201Z 2102/2124 21007KT 6SM -SHRA SCT025 OVC035
      TEMPO 2102/2104 3SM -SHRA BR BKN008 OVC015
     FM210500 28006KT 6SM BR VCSH OVC015
     FM210900 30008KT 5SM -DZ BKN008 OVC015
     FM211500 32012KT 4SM BR SCT008 OVC015=



000
FTUS41 KCLE 210100 AAA
TAFCLE
TAF AMD
KCLE 210109Z 2101/2206 25008KT 5SM -SHRA BR BKN015 OVC025
      TEMPO 2101/2103 3SM -SHRA BR BKN008 OVC012
     FM210400 27008KT 6SM BR VCSH OVC015
     FM210800 30010KT 5SM -DZ BR BKN008 OVC015
     FM211500 32012G20KT 6SM BR VCSH OVC015=



000
FTUS41 KCLE 210100 AAA
TAFMFD
TAF AMD
KMFD 210108Z 2101/2124 25006KT 6SM -DZ BR BKN008 OVC012
      TEMPO 2104/2108 2SM -DZ BR OVC008
     FM211000 30010KT 4SM BR OVC006
     FM211500 32010G18KT 6SM BR SCT008 OVC015=



000
FTUS41 KCLE 202300 CCA
TAFMFD
TAF COR
KMFD 202341Z 2100/2124 23006KT 5SM -SHRA BR SCT015 OVC025
     FM210200 28006KT 4SM -DZ BR SCT008 OVC012
      TEMPO 2104/2108 2SM -DZ BR OVC008
     FM211000 30010KT 4SM BR OVC006
     FM211500 32010G18KT 6SM BR SCT008 OVC015=



000
FTUS41 KCLE 202300
TAFYNG
TAF
KYNG 202340Z 2100/2124 21007KT 6SM -SHRA BKN025 OVC035
      TEMPO 2101/2105 3SM -SHRA BR SCT008 OVC012
     FM210600 28006KT 6SM BR VCSH OVC015
     FM211000 30008KT 5SM -DZ BKN008 OVC015
     FM211600 32012KT 4SM BR SCT008 OVC015=



000
FTUS41 KCLE 202300
TAFERI
TAF
KERI 202340Z 2100/2124 19010G18KT P6SM -SHRA SCT025 OVC035
      TEMPO 2101/2105 3SM -SHRA SCT012 OVC025
     FM210500 28008KT 4SM -SHRA BR SCT008 OVC012
     FM211700 32012KT 6SM BR VCSH OVC015=



000
FTUS41 KCLE 202300
TAFMFD
TAF
KMFD 202340Z 2100/2124 22006KT P6SM -SHRA SCT025 OVC050
     FM210200 28006KT 4SM -DZ BR SCT008 OVC012
      TEMPO 2104/2108 2SM -DZ BR OVC008
     FM211000 30010KT 4SM BR OVC006
     FM211500 32010G18KT 6SM BR SCT008 OVC015=



000
FTUS41 KCLE 202300
TAFTOL
TAF
KTOL 202340Z 2100/2124 27006KT P6SM BKN015 OVC025
      TEMPO 2101/2104 4SM -SHRA BR SCT008 OVC012
     FM210400 32008KT P6SM OVC015
     FM211400 33012G20KT P6SM SCT015 OVC025=



000
FTUS41 KCLE 202300
TAFFDY
TAF
KFDY 202340Z 2100/2124 26006KT P6SM SCT015 OVC025
     FM210400 32010KT P6SM OVC015
     FM211400 32012G20KT P6SM SCT015 OVC025
     FM212300 34008KT P6SM OVC035=



000
FTUS41 KCLE 202300
TAFCAK
TAF
KCAK 202340Z 2100/2124 21007KT 6SM -SHRA SCT025 OVC035
      TEMPO 2100/2104 3SM -SHRA BR SCT008 OVC012
     FM210500 28006KT 6SM BR VCSH OVC015
     FM210900 30008KT 5SM -DZ BKN008 OVC015
     FM211500 32012KT 4SM BR SCT008 OVC015=



000
FTUS41 KCLE 202300
TAFCLE
TAF
KCLE 202340Z 2100/2206 22008KT 5SM -SHRA BR BKN015 OVC025
      TEMPO 2100/2103 3SM -SHRA BR SCT008 OVC012
     FM210400 27008KT 6SM BR VCSH OVC015
     FM210800 30010KT 5SM -DZ BR BKN008 OVC015
     FM211500 32012G20KT 6SM BR VCSH OVC015=



000
FTUS41 KCLE 202100 AAA
TAFCLE
TAF AMD
KCLE 202133Z 2022/2124 23010KT P6SM -SHRA SCT025 OVC035
      TEMPO 2022/2024 3SM -SHRA OVC025
     FM210400 27008KT P6SM VCSH OVC025
     FM210700 28008KT 5SM -DZ BR OVC015
     FM211300 31012KT P6SM OVC025=



000
FTUS41 KCLE 202100 AAA
TAFCLE
TAF AMD
KCLE 202133Z 2022/2124 23010KT P6SM -SHRA SCT025 OVC035
      TEMPO 2022/2024 3SM -SHRA OVC025
     FM210400 27008KT P6SM VCSH OVC025
     FM210700 28008KT 5SM -DZ BR OVC015
     FM211300 31012KT P6SM OVC025=



000
FTUS41 KCLE 202000 AAA
TAFCLE
TAF AMD
KCLE 202057Z 2021/2124 20010KT P6SM -SHRA SCT025 OVC035
      TEMPO 2021/2024 5SM -SHRA OVC025
     FM210000 24010KT 6SM -SHRA SCT025 OVC035
     FM210400 27008KT P6SM VCSH OVC025
     FM210700 28008KT 5SM -DZ BR OVC015
     FM211300 31012KT P6SM OVC025=



000
FTUS41 KCLE 201800 CCA
TAFMFD
TAF COR
KMFD 201823Z 2018/2118 21012G20KT P6SM OVC100
      TEMPO 2019/2022 2SM SHRA OVC025
     FM202200 25010KT 6SM -SHRA OVC035
     FM210200 26008KT P6SM VCSH OVC025
     FM210700 29008KT 5SM -DZ BR OVC008
     FM211300 31012KT P6SM OVC015=



000
FTUS41 KCLE 201700 CCA
TAFFDY
TAF COR
KFDY 201745Z 2018/2118 19012KT P6SM OVC050
      TEMPO 2018/2020 2SM SHRA OVC025
     FM202200 26008KT P6SM VCSH OVC025
     FM210500 30008KT 6SM BR OVC015
     FM211300 33012KT P6SM BKN030=



000
FTUS41 KCLE 201700
TAFERI
TAF
KERI 201733Z 2018/2118 19012G20KT P6SM OVC100
     FM202100 20012G20KT P6SM OVC050
      TEMPO 2021/2024 -SHRA
     FM210000 22010KT P6SM -SHRA OVC035
     FM210600 26010KT 5SM -SHRA OVC025
     FM211000 30010KT 4SM -SHRA OVC015=



000
FTUS41 KCLE 201700
TAFMFD
TAF
KMFD 201733Z 2018/2118 21012G20KT P6SM OVC010
      TEMPO 2019/2022 5SM -SHRA OVC035
     FM202200 25010KT 6SM -SHRA OVC035
     FM210200 26008KT P6SM VCSH OVC025
     FM210700 29008KT 5SM -DZ BR OVC008
     FM211300 31012KT P6SM OVC015=



000
FTUS41 KCLE 201700
TAFCAK
TAF
KCAK 201733Z 2018/2118 20012KT P6SM OVC100
      TEMPO 2018/2019 -SHRA
     FM202100 22010KT P6SM OVC050
      TEMPO 2021/2024 5SM -SHRA
     FM210000 27010KT 6SM -SHRA OVC035
     FM210400 28008KT 4SM -SHRA BR OVC025
     FM210800 30008KT 5SM -DZ BR OVC008
     FM211400 31012KT P6SM OVC015=



000
FTUS41 KCLE 201700
TAFYNG
TAF
KYNG 201733Z 2018/2118 22010KT P6SM OVC100
      TEMPO 2018/2020 -SHRA
     FM202200 23010KT P6SM OVC050
      TEMPO 2022/2101 5SM -SHRA
     FM210100 25010KT 6SM -SHRA OVC035
     FM210500 27007KT 4SM -SHRA BR OVC025
     FM210800 29008KT 5SM -DZ BR OVC008
     FM211400 31012KT P6SM OVC015=



000
FTUS41 KCLE 201700
TAFCLE
TAF
KCLE 201733Z 2018/2124 19012G20KT P6SM OVC100
      TEMPO 2020/2024 5SM -SHRA OVC035
     FM210000 24010KT 6SM -SHRA OVC035
     FM210400 27008KT P6SM VCSH OVC025
     FM210700 28008KT 5SM -DZ BR OVC015
     FM211300 31012KT P6SM OVC025=



000
FTUS41 KCLE 201700
TAFTOL
TAF
KTOL 201733Z 2018/2118 24012KT P6SM OVC070
      TEMPO 2018/2021 4SM SHRA OVC025
     FM202100 27008KT P6SM VCSH OVC025
     FM210500 30008KT 6SM BR OVC015
     FM211300 33012KT P6SM BKN035=



000
FTUS41 KCLE 201700
TAFFDY
TAF
KFDY 201733Z 2018/2118 19012KT P6SM OVC070
      TEMPO 2018/2022 4SM SHRA OVC025
     FM202200 26008KT P6SM VCSH OVC025
     FM210500 30008KT 6SM BR OVC015
     FM211300 33012KT P6SM BKN030=



000
FTUS41 KCLE 201400 AAA
TAFCLE
TAF AMD
KCLE 201453Z 2015/2118 20012G18KT P6SM OVC100
      TEMPO 2015/2018 -SHRA
     FM202100 22014G20KT 6SM -SHRA BKN035 OVC060
     FM210300 25008KT 4SM -SHRA BR BKN012 OVC025
     FM210700 28008KT 3SM -SHRA BR BKN008 OVC015
     FM211400 30014G20KT 6SM -SHRA OVC010=



000
FTUS41 KCLE 201100
TAFERI
TAF
KERI 201130Z 2012/2112 19010KT P6SM VCSH OVC100
     FM201500 20012G18KT P6SM VCSH BKN080 OVC120
     FM202200 20012G18KT 6SM -SHRA BKN035 OVC060
     FM210400 22008KT 4SM -SHRA BR BKN012 OVC030
     FM210800 26008KT 3SM -SHRA BR BKN006 OVC012=



000
FTUS41 KCLE 201100
TAFMFD
TAF
KMFD 201130Z 2012/2112 20008KT 6SM -SHRA BKN070 OVC100
     FM201500 23012G18KT P6SM VCSH BKN035 OVC060
     FM210200 26008KT 5SM -SHRA BR OVC025
     FM210700 29008KT 4SM -SHRA BR BKN008 OVC015=



000
FTUS41 KCLE 201100
TAFTOL
TAF
KTOL 201130Z 2012/2112 20008KT 6SM -SHRA BKN060 OVC100
     FM201500 23012G18KT P6SM VCSH BKN035 OVC060
     FM202200 27009KT P6SM VCSH OVC030
     FM210500 30008KT 6SM BR OVC018=



000
FTUS41 KCLE 201100
TAFFDY
TAF
KFDY 201130Z 2012/2112 20009KT 6SM -SHRA BKN070 OVC100
     FM201500 23012G18KT P6SM VCSH BKN035 OVC060
     FM202200 27009KT P6SM VCSH OVC030
     FM210500 30008KT 6SM BR OVC018=



000
FTUS41 KCLE 201100
TAFCAK
TAF
KCAK 201130Z 2012/2112 20009KT P6SM BKN080 OVC110
     FM201400 20012G18KT P6SM VCSH BKN080 OVC120
     FM202100 21012G18KT 6SM -SHRA BKN035 OVC060
     FM210400 25007KT 3SM -SHRA BR BKN010 OVC025
     FM210800 28007KT 3SM -SHRA BR BKN007 OVC012=



000
FTUS41 KCLE 201100
TAFYNG
TAF
KYNG 201130Z 2012/2112 20007KT P6SM BKN080 OVC110
     FM201400 20012G18KT P6SM VCSH BKN080 OVC120
     FM202100 21012G18KT 6SM -SHRA BKN035 OVC060
     FM210400 24007KT 3SM -SHRA BR BKN010 OVC025
     FM210800 27007KT 3SM -SHRA BR BKN007 OVC012=



000
FTUS41 KCLE 201100
TAFCLE
TAF
KCLE 201130Z 2012/2118 19008KT P6SM -SHRA BKN070 OVC100
     FM201400 20012G18KT P6SM VCSH BKN080 OVC120
     FM202100 22014G20KT 6SM -SHRA BKN035 OVC060
     FM210300 25008KT 4SM -SHRA BR BKN012 OVC025
     FM210700 28008KT 3SM -SHRA BR BKN008 OVC015
     FM211400 30014G20KT 6SM -SHRA OVC010=



    US Dept of Commerce
    National Oceanic and Atmospheric Administration
    National Weather Service
    1325 East West Highway
    Silver Spring, MD 20910
    Page Author: NWS Internet Services Team
Disclaimer
Information Quality
Credits
Glossary
Privacy Policy
Freedom of Information Act (FOIA)
About Us
Career Opportunities